Churchill Airport
CYYQ : now visible

Airfield :











YOU CAN JOIN US ON...

 
LOGIN :

Register | Disclaimer

   EN    FR    IT 

 









Legend :    VFR   Marginal VFR   IFR   Intensive IFR   Very Intensive IFR
Visi :
Ceiling :
>= 8 km
>= 3000ft
5 to 8 km
1000 to 3000 ft
1500m to 5 km
500 to 1000 ft
800 to 1500m
200 to 500 ft
< 800m
< 200 ft
Symbols :   Thunderstorms  Fog  Heavy snow  Heavy precipitations  Wind > 20 kt






- Airport Elevation : 94 ft
- IATA code : YYQ


CYYQ - Churchill

CURRENT METAR :
  • 040700Z 32010KT 15SM -SN BKN006 M07/M08 A2999 RMK SC7 WND ESTD SLP162

EXPIRED METARs :
  • 040600Z 32010KT 15SM -SN BKN006 OVC010 M09/M10 A2999 RMK SC7SC1 WND ESTD SLP161
  • 040500Z 36005KT 15SM -SN BKN006 OVC010 M07/M08 A2997 RMK SC7SC1 WND ESTD SLP155

TAF TAF CYYQ
Valid from the 04 at 06:00 until the 05 at 06:00 UTC


040541Z 0406/0506 36008KT 5SM -SN BR BKN006
TEMPO 0406/0417 P6SM NSW SCT006 OVC010
BECMG 0408/0410 30008KT
FM041700 22008KT P6SM BKN010
FM050400 24008KT 2SM -SN BR BKN006 OVC012 RMK NXT FCST BY 041200Z
CZWG FIR / North America



MET'MAP, your aeronautical weather chart ! - Copyright ORBIFLY December 2007 - Disclaimer

ORBIFLY MET'MAP TEAM :

Programming & Development : Alexandra Zaïnal
Concept & original design : Baudouin d'Aumeries
Assistance for programming : Marc-Olivier Méhu
Technical & hardware support : Manuel Goepfert

Contact : metmap@orbifly.com




SOURCES & CREDITS :

   NOAA       Earth
Advisory